sensor_id;sensor_type;location;lat;lon;timestamp;P1;durP1;ratioP1;P2;durP2;ratioP2
18433;SDS011;9344;52.294;13.626;2022-12-07T00:01:32;8.43;;;2.93;;
18433;SDS011;9344;52.294;13.626;2022-12-07T00:04:02;10.60;;;3.33;;
18433;SDS011;9344;52.294;13.626;2022-12-07T00:06:30;15.10;;;4.10;;
18433;SDS011;9344;52.294;13.626;2022-12-07T00:08:57;9.97;;;3.60;;
18433;SDS011;9344;52.294;13.626;2022-12-07T00:11:23;9.53;;;3.60;;
18433;SDS011;9344;52.294;13.626;2022-12-07T00:13:52;11.17;;;4.13;;
18433;SDS011;9344;52.294;13.626;2022-12-07T00:16:21;9.73;;;3.27;;
18433;SDS011;9344;52.294;13.626;2022-12-07T00:18:49;12.13;;;4.03;;
18433;SDS011;9344;52.294;13.626;2022-12-07T00:21:17;9.37;;;3.83;;
18433;SDS011;9344;52.294;13.626;2022-12-07T00:23:45;15.43;;;4.13;;
18433;SDS011;9344;52.294;13.626;2022-12-07T00:26:14;21.87;;;5.03;;
18433;SDS011;9344;52.294;13.626;2022-12-07T00:28:44;11.27;;;3.93;;
18433;SDS011;9344;52.294;13.626;2022-12-07T00:31:13;14.00;;;4.40;;
18433;SDS011;9344;52.294;13.626;2022-12-07T00:33:41;13.10;;;4.40;;
18433;SDS011;9344;52.294;13.626;2022-12-07T00:36:09;9.40;;;3.60;;
18433;SDS011;9344;52.294;13.626;2022-12-07T00:38:37;12.87;;;4.23;;
18433;SDS011;9344;52.294;13.626;2022-12-07T00:41:05;11.77;;;4.03;;
18433;SDS011;9344;52.294;13.626;2022-12-07T00:43:33;9.23;;;3.20;;
18433;SDS011;9344;52.294;13.626;2022-12-07T00:45:59;10.13;;;3.60;;
18433;SDS011;9344;52.294;13.626;2022-12-07T00:48:27;10.10;;;3.70;;
18433;SDS011;9344;52.294;13.626;2022-12-07T00:50:54;10.83;;;3.80;;
18433;SDS011;9344;52.294;13.626;2022-12-07T00:53:20;12.30;;;4.00;;
18433;SDS011;9344;52.294;13.626;2022-12-07T00:55:47;9.07;;;3.50;;
18433;SDS011;9344;52.294;13.626;2022-12-07T00:58:14;10.53;;;3.83;;
18433;SDS011;9344;52.294;13.626;2022-12-07T01:00:41;9.50;;;3.33;;
18433;SDS011;9344;52.294;13.626;2022-12-07T01:03:09;8.03;;;3.40;;
18433;SDS011;9344;52.294;13.626;2022-12-07T01:05:38;8.30;;;3.13;;
18433;SDS011;9344;52.294;13.626;2022-12-07T01:08:05;9.77;;;3.30;;
18433;SDS011;9344;52.294;13.626;2022-12-07T01:10:32;15.20;;;3.40;;
18433;SDS011;9344;52.294;13.626;2022-12-07T01:12:59;8.67;;;3.17;;
18433;SDS011;9344;52.294;13.626;2022-12-07T01:15:25;9.80;;;3.27;;
18433;SDS011;9344;52.294;13.626;2022-12-07T01:17:52;9.63;;;3.57;;
18433;SDS011;9344;52.294;13.626;2022-12-07T01:20:19;8.70;;;3.50;;
18433;SDS011;9344;52.294;13.626;2022-12-07T01:22:47;9.20;;;3.57;;
18433;SDS011;9344;52.294;13.626;2022-12-07T01:25:13;9.97;;;3.50;;
18433;SDS011;9344;52.294;13.626;2022-12-07T01:27:40;9.17;;;3.73;;
18433;SDS011;9344;52.294;13.626;2022-12-07T01:30:07;8.50;;;3.20;;
18433;SDS011;9344;52.294;13.626;2022-12-07T01:32:35;7.50;;;3.33;;
18433;SDS011;9344;52.294;13.626;2022-12-07T01:35:02;7.57;;;3.00;;
18433;SDS011;9344;52.294;13.626;2022-12-07T01:37:33;10.73;;;3.43;;
18433;SDS011;9344;52.294;13.626;2022-12-07T01:40:02;8.00;;;3.03;;
18433;SDS011;9344;52.294;13.626;2022-12-07T01:42:29;7.47;;;2.87;;
18433;SDS011;9344;52.294;13.626;2022-12-07T01:48:02;6.20;;;2.87;;
18433;SDS011;9344;52.294;13.626;2022-12-07T01:50:29;5.97;;;2.60;;
18433;SDS011;9344;52.294;13.626;2022-12-07T01:52:57;8.63;;;3.17;;
18433;SDS011;9344;52.294;13.626;2022-12-07T01:55:28;8.67;;;2.80;;
18433;SDS011;9344;52.294;13.626;2022-12-07T01:57:55;8.63;;;3.07;;
18433;SDS011;9344;52.294;13.626;2022-12-07T02:00:23;8.73;;;2.70;;
18433;SDS011;9344;52.294;13.626;2022-12-07T02:02:51;9.60;;;2.90;;
18433;SDS011;9344;52.294;13.626;2022-12-07T02:05:20;6.73;;;2.77;;
18433;SDS011;9344;52.294;13.626;2022-12-07T02:07:46;5.83;;;2.80;;
18433;SDS011;9344;52.294;13.626;2022-12-07T02:10:15;6.00;;;2.53;;
18433;SDS011;9344;52.294;13.626;2022-12-07T02:12:44;7.17;;;2.73;;
18433;SDS011;9344;52.294;13.626;2022-12-07T02:15:13;5.10;;;2.40;;
18433;SDS011;9344;52.294;13.626;2022-12-07T02:17:40;5.67;;;2.40;;
18433;SDS011;9344;52.294;13.626;2022-12-07T02:20:17;3.90;;;2.17;;
18433;SDS011;9344;52.294;13.626;2022-12-07T02:23:11;7.37;;;2.70;;
18433;SDS011;9344;52.294;13.626;2022-12-07T02:26:18;7.33;;;2.73;;
18433;SDS011;9344;52.294;13.626;2022-12-07T02:29:04;5.47;;;2.70;;
18433;SDS011;9344;52.294;13.626;2022-12-07T02:31:43;3.73;;;2.30;;
18433;SDS011;9344;52.294;13.626;2022-12-07T02:34:18;8.23;;;2.70;;
18433;SDS011;9344;52.294;13.626;2022-12-07T02:36:50;6.33;;;2.57;;
18433;SDS011;9344;52.294;13.626;2022-12-07T02:39:24;7.27;;;3.23;;
18433;SDS011;9344;52.294;13.626;2022-12-07T02:41:55;4.20;;;2.07;;
18433;SDS011;9344;52.294;13.626;2022-12-07T02:44:26;6.57;;;2.73;;
18433;SDS011;9344;52.294;13.626;2022-12-07T02:46:54;7.40;;;2.77;;
18433;SDS011;9344;52.294;13.626;2022-12-07T02:49:25;4.03;;;2.07;;
18433;SDS011;9344;52.294;13.626;2022-12-07T02:51:54;8.73;;;2.77;;
18433;SDS011;9344;52.294;13.626;2022-12-07T02:54:21;6.93;;;2.60;;
18433;SDS011;9344;52.294;13.626;2022-12-07T02:56:48;5.40;;;2.80;;
18433;SDS011;9344;52.294;13.626;2022-12-07T02:59:17;5.20;;;2.40;;
18433;SDS011;9344;52.294;13.626;2022-12-07T03:01:54;5.13;;;2.30;;
18433;SDS011;9344;52.294;13.626;2022-12-07T03:04:33;5.20;;;2.33;;
18433;SDS011;9344;52.294;13.626;2022-12-07T03:07:16;5.87;;;2.70;;
18433;SDS011;9344;52.294;13.626;2022-12-07T03:09:51;4.87;;;2.20;;
18433;SDS011;9344;52.294;13.626;2022-12-07T03:12:27;5.93;;;2.50;;
18433;SDS011;9344;52.294;13.626;2022-12-07T03:15:00;4.43;;;2.00;;
18433;SDS011;9344;52.294;13.626;2022-12-07T03:17:33;4.87;;;1.87;;
18433;SDS011;9344;52.294;13.626;2022-12-07T03:20:03;4.43;;;2.20;;
18433;SDS011;9344;52.294;13.626;2022-12-07T03:22:34;3.40;;;1.77;;
18433;SDS011;9344;52.294;13.626;2022-12-07T03:25:04;4.40;;;1.90;;
18433;SDS011;9344;52.294;13.626;2022-12-07T03:27:35;4.77;;;2.13;;
18433;SDS011;9344;52.294;13.626;2022-12-07T03:30:06;3.57;;;2.03;;
18433;SDS011;9344;52.294;13.626;2022-12-07T03:32:37;4.73;;;2.20;;
18433;SDS011;9344;52.294;13.626;2022-12-07T03:35:07;5.27;;;2.10;;
18433;SDS011;9344;52.294;13.626;2022-12-07T03:37:41;5.63;;;2.13;;
18433;SDS011;9344;52.294;13.626;2022-12-07T03:40:14;5.93;;;2.43;;
18433;SDS011;9344;52.294;13.626;2022-12-07T03:42:45;5.07;;;2.47;;
18433;SDS011;9344;52.294;13.626;2022-12-07T03:45:12;6.47;;;3.03;;
18433;SDS011;9344;52.294;13.626;2022-12-07T03:47:45;6.40;;;2.27;;
18433;SDS011;9344;52.294;13.626;2022-12-07T03:50:18;4.73;;;2.63;;
18433;SDS011;9344;52.294;13.626;2022-12-07T03:52:52;6.70;;;2.60;;
18433;SDS011;9344;52.294;13.626;2022-12-07T03:55:22;5.83;;;2.40;;
18433;SDS011;9344;52.294;13.626;2022-12-07T03:57:54;5.80;;;2.47;;
18433;SDS011;9344;52.294;13.626;2022-12-07T04:00:23;7.10;;;2.70;;
18433;SDS011;9344;52.294;13.626;2022-12-07T04:02:52;7.40;;;2.87;;
18433;SDS011;9344;52.294;13.626;2022-12-07T04:05:19;7.37;;;2.67;;
18433;SDS011;9344;52.294;13.626;2022-12-07T04:07:45;8.97;;;2.77;;
18433;SDS011;9344;52.294;13.626;2022-12-07T04:10:12;11.53;;;4.10;;
18433;SDS011;9344;52.294;13.626;2022-12-07T04:12:38;8.90;;;3.13;;
18433;SDS011;9344;52.294;13.626;2022-12-07T04:15:05;5.83;;;2.40;;
18433;SDS011;9344;52.294;13.626;2022-12-07T04:17:33;7.43;;;3.17;;
18433;SDS011;9344;52.294;13.626;2022-12-07T04:20:01;10.07;;;3.83;;
18433;SDS011;9344;52.294;13.626;2022-12-07T04:22:29;9.50;;;3.90;;
18433;SDS011;9344;52.294;13.626;2022-12-07T04:24:56;11.77;;;3.53;;
18433;SDS011;9344;52.294;13.626;2022-12-07T04:27:22;12.17;;;3.43;;
18433;SDS011;9344;52.294;13.626;2022-12-07T04:29:49;10.63;;;3.30;;
18433;SDS011;9344;52.294;13.626;2022-12-07T04:32:16;10.23;;;4.37;;
18433;SDS011;9344;52.294;13.626;2022-12-07T04:34:42;10.73;;;4.57;;
18433;SDS011;9344;52.294;13.626;2022-12-07T04:37:10;16.53;;;5.53;;
18433;SDS011;9344;52.294;13.626;2022-12-07T04:39:36;8.50;;;3.20;;
18433;SDS011;9344;52.294;13.626;2022-12-07T04:42:03;15.97;;;3.80;;
18433;SDS011;9344;52.294;13.626;2022-12-07T04:44:30;16.00;;;4.27;;
18433;SDS011;9344;52.294;13.626;2022-12-07T04:46:56;13.53;;;4.20;;
18433;SDS011;9344;52.294;13.626;2022-12-07T04:49:23;15.50;;;4.43;;
18433;SDS011;9344;52.294;13.626;2022-12-07T04:51:50;16.70;;;5.33;;
18433;SDS011;9344;52.294;13.626;2022-12-07T04:54:19;16.10;;;5.27;;
18433;SDS011;9344;52.294;13.626;2022-12-07T04:56:45;17.97;;;4.73;;
18433;SDS011;9344;52.294;13.626;2022-12-07T04:59:12;14.73;;;5.37;;
18433;SDS011;9344;52.294;13.626;2022-12-07T05:01:39;15.40;;;5.03;;
18433;SDS011;9344;52.294;13.626;2022-12-07T05:04:06;16.87;;;5.40;;
18433;SDS011;9344;52.294;13.626;2022-12-07T05:06:33;19.70;;;5.87;;
18433;SDS011;9344;52.294;13.626;2022-12-07T05:09:00;17.73;;;5.27;;
18433;SDS011;9344;52.294;13.626;2022-12-07T05:11:29;13.30;;;5.20;;
18433;SDS011;9344;52.294;13.626;2022-12-07T05:14:06;12.87;;;4.63;;
18433;SDS011;9344;52.294;13.626;2022-12-07T05:16:35;18.07;;;5.80;;
18433;SDS011;9344;52.294;13.626;2022-12-07T05:19:02;15.00;;;4.90;;
18433;SDS011;9344;52.294;13.626;2022-12-07T05:21:29;16.70;;;5.60;;
18433;SDS011;9344;52.294;13.626;2022-12-07T05:23:56;18.33;;;5.10;;
18433;SDS011;9344;52.294;13.626;2022-12-07T05:26:22;18.67;;;5.03;;
18433;SDS011;9344;52.294;13.626;2022-12-07T05:28:51;16.93;;;5.90;;
18433;SDS011;9344;52.294;13.626;2022-12-07T05:31:18;11.37;;;5.10;;
18433;SDS011;9344;52.294;13.626;2022-12-07T05:33:45;16.83;;;5.80;;
18433;SDS011;9344;52.294;13.626;2022-12-07T05:36:12;14.13;;;5.50;;
18433;SDS011;9344;52.294;13.626;2022-12-07T05:38:38;17.50;;;5.63;;
18433;SDS011;9344;52.294;13.626;2022-12-07T05:41:06;17.83;;;5.20;;
18433;SDS011;9344;52.294;13.626;2022-12-07T05:43:54;15.63;;;5.33;;
18433;SDS011;9344;52.294;13.626;2022-12-07T05:46:21;17.73;;;6.40;;
18433;SDS011;9344;52.294;13.626;2022-12-07T05:48:47;14.87;;;5.60;;
18433;SDS011;9344;52.294;13.626;2022-12-07T05:51:14;15.63;;;5.20;;
18433;SDS011;9344;52.294;13.626;2022-12-07T05:53:40;13.47;;;4.73;;
18433;SDS011;9344;52.294;13.626;2022-12-07T05:56:07;13.67;;;4.87;;
18433;SDS011;9344;52.294;13.626;2022-12-07T05:58:33;11.43;;;4.70;;
18433;SDS011;9344;52.294;13.626;2022-12-07T06:01:18;14.90;;;5.50;;
18433;SDS011;9344;52.294;13.626;2022-12-07T06:03:44;16.50;;;5.27;;
18433;SDS011;9344;52.294;13.626;2022-12-07T06:06:11;17.53;;;6.67;;
18433;SDS011;9344;52.294;13.626;2022-12-07T06:08:37;16.50;;;5.90;;
18433;SDS011;9344;52.294;13.626;2022-12-07T06:11:04;14.90;;;5.53;;
18433;SDS011;9344;52.294;13.626;2022-12-07T06:13:48;15.57;;;4.93;;
18433;SDS011;9344;52.294;13.626;2022-12-07T06:16:15;19.00;;;4.93;;
18433;SDS011;9344;52.294;13.626;2022-12-07T06:18:43;19.73;;;5.67;;
18433;SDS011;9344;52.294;13.626;2022-12-07T06:21:09;15.60;;;5.10;;
18433;SDS011;9344;52.294;13.626;2022-12-07T06:23:36;15.63;;;5.27;;
18433;SDS011;9344;52.294;13.626;2022-12-07T06:26:02;20.00;;;6.27;;
18433;SDS011;9344;52.294;13.626;2022-12-07T06:28:29;19.63;;;5.90;;
18433;SDS011;9344;52.294;13.626;2022-12-07T06:30:56;19.53;;;5.27;;
18433;SDS011;9344;52.294;13.626;2022-12-07T06:33:23;18.03;;;5.47;;
18433;SDS011;9344;52.294;13.626;2022-12-07T06:35:51;14.70;;;5.63;;
18433;SDS011;9344;52.294;13.626;2022-12-07T06:38:18;13.00;;;4.67;;
18433;SDS011;9344;52.294;13.626;2022-12-07T06:40:44;20.30;;;6.53;;
18433;SDS011;9344;52.294;13.626;2022-12-07T06:43:11;16.70;;;4.90;;
18433;SDS011;9344;52.294;13.626;2022-12-07T06:45:38;15.53;;;5.43;;
18433;SDS011;9344;52.294;13.626;2022-12-07T06:48:04;16.60;;;5.37;;
18433;SDS011;9344;52.294;13.626;2022-12-07T06:50:31;17.83;;;6.07;;
18433;SDS011;9344;52.294;13.626;2022-12-07T06:52:59;15.77;;;4.83;;
18433;SDS011;9344;52.294;13.626;2022-12-07T06:55:25;17.80;;;4.93;;
18433;SDS011;9344;52.294;13.626;2022-12-07T06:57:52;14.50;;;5.60;;
18433;SDS011;9344;52.294;13.626;2022-12-07T07:00:19;18.33;;;5.80;;
18433;SDS011;9344;52.294;13.626;2022-12-07T07:02:46;13.90;;;5.60;;
18433;SDS011;9344;52.294;13.626;2022-12-07T07:05:12;11.30;;;5.33;;
18433;SDS011;9344;52.294;13.626;2022-12-07T07:07:39;15.93;;;5.57;;
18433;SDS011;9344;52.294;13.626;2022-12-07T07:10:07;16.50;;;5.83;;
18433;SDS011;9344;52.294;13.626;2022-12-07T07:12:34;12.67;;;4.77;;
18433;SDS011;9344;52.294;13.626;2022-12-07T07:15:00;14.93;;;5.27;;
18433;SDS011;9344;52.294;13.626;2022-12-07T07:17:27;12.87;;;5.00;;
18433;SDS011;9344;52.294;13.626;2022-12-07T07:19:53;17.17;;;5.97;;
18433;SDS011;9344;52.294;13.626;2022-12-07T07:22:20;20.20;;;6.63;;
18433;SDS011;9344;52.294;13.626;2022-12-07T07:24:46;17.30;;;6.63;;
18433;SDS011;9344;52.294;13.626;2022-12-07T07:27:14;21.93;;;6.00;;
18433;SDS011;9344;52.294;13.626;2022-12-07T07:29:41;18.63;;;6.63;;
18433;SDS011;9344;52.294;13.626;2022-12-07T07:32:07;19.97;;;6.97;;
18433;SDS011;9344;52.294;13.626;2022-12-07T07:34:34;17.67;;;6.43;;
18433;SDS011;9344;52.294;13.626;2022-12-07T07:37:00;19.97;;;6.50;;
18433;SDS011;9344;52.294;13.626;2022-12-07T07:39:27;24.47;;;6.60;;
18433;SDS011;9344;52.294;13.626;2022-12-07T07:41:53;16.33;;;5.63;;
18433;SDS011;9344;52.294;13.626;2022-12-07T07:44:21;15.83;;;4.93;;
18433;SDS011;9344;52.294;13.626;2022-12-07T07:46:48;14.07;;;5.30;;
18433;SDS011;9344;52.294;13.626;2022-12-07T07:49:14;15.03;;;6.03;;
18433;SDS011;9344;52.294;13.626;2022-12-07T07:51:41;14.57;;;6.10;;
18433;SDS011;9344;52.294;13.626;2022-12-07T07:54:07;17.23;;;5.80;;
18433;SDS011;9344;52.294;13.626;2022-12-07T07:56:34;18.03;;;6.13;;
18433;SDS011;9344;52.294;13.626;2022-12-07T07:59:00;17.23;;;5.33;;
18433;SDS011;9344;52.294;13.626;2022-12-07T08:01:28;23.77;;;6.27;;
18433;SDS011;9344;52.294;13.626;2022-12-07T08:03:55;15.47;;;5.63;;
18433;SDS011;9344;52.294;13.626;2022-12-07T08:06:21;13.13;;;4.83;;
18433;SDS011;9344;52.294;13.626;2022-12-07T08:08:48;19.13;;;5.47;;
18433;SDS011;9344;52.294;13.626;2022-12-07T08:11:14;17.07;;;6.43;;
18433;SDS011;9344;52.294;13.626;2022-12-07T08:13:41;12.77;;;5.30;;
18433;SDS011;9344;52.294;13.626;2022-12-07T08:16:08;15.43;;;5.90;;
18433;SDS011;9344;52.294;13.626;2022-12-07T08:18:37;15.90;;;5.33;;
18433;SDS011;9344;52.294;13.626;2022-12-07T08:21:05;15.50;;;5.30;;
18433;SDS011;9344;52.294;13.626;2022-12-07T08:23:33;16.40;;;5.63;;
18433;SDS011;9344;52.294;13.626;2022-12-07T08:26:00;16.90;;;5.53;;
18433;SDS011;9344;52.294;13.626;2022-12-07T08:28:27;21.83;;;5.70;;
18433;SDS011;9344;52.294;13.626;2022-12-07T08:30:58;19.47;;;5.93;;
18433;SDS011;9344;52.294;13.626;2022-12-07T08:33:25;15.93;;;5.67;;
18433;SDS011;9344;52.294;13.626;2022-12-07T08:35:52;15.97;;;5.67;;
18433;SDS011;9344;52.294;13.626;2022-12-07T08:38:19;15.17;;;4.87;;
18433;SDS011;9344;52.294;13.626;2022-12-07T08:40:52;17.70;;;5.50;;
18433;SDS011;9344;52.294;13.626;2022-12-07T08:43:19;18.77;;;6.30;;
18433;SDS011;9344;52.294;13.626;2022-12-07T08:45:46;14.37;;;5.37;;
18433;SDS011;9344;52.294;13.626;2022-12-07T08:48:13;12.40;;;4.80;;
18433;SDS011;9344;52.294;13.626;2022-12-07T08:50:42;15.20;;;4.80;;
18433;SDS011;9344;52.294;13.626;2022-12-07T08:53:11;17.83;;;4.93;;
18433;SDS011;9344;52.294;13.626;2022-12-07T08:55:37;11.97;;;4.50;;
18433;SDS011;9344;52.294;13.626;2022-12-07T08:58:04;17.10;;;5.33;;
18433;SDS011;9344;52.294;13.626;2022-12-07T09:00:30;13.83;;;4.07;;
18433;SDS011;9344;52.294;13.626;2022-12-07T09:02:57;12.10;;;4.50;;
18433;SDS011;9344;52.294;13.626;2022-12-07T09:05:23;11.50;;;4.00;;
18433;SDS011;9344;52.294;13.626;2022-12-07T09:07:51;14.37;;;5.20;;
18433;SDS011;9344;52.294;13.626;2022-12-07T09:10:23;12.87;;;4.37;;
18433;SDS011;9344;52.294;13.626;2022-12-07T09:12:49;11.70;;;3.53;;
18433;SDS011;9344;52.294;13.626;2022-12-07T09:15:16;10.60;;;4.03;;
18433;SDS011;9344;52.294;13.626;2022-12-07T09:17:43;8.43;;;3.27;;
18433;SDS011;9344;52.294;13.626;2022-12-07T09:20:09;11.93;;;3.37;;
18433;SDS011;9344;52.294;13.626;2022-12-07T09:22:37;8.43;;;3.40;;
18433;SDS011;9344;52.294;13.626;2022-12-07T09:25:04;6.70;;;2.67;;
18433;SDS011;9344;52.294;13.626;2022-12-07T09:27:32;7.73;;;2.53;;
18433;SDS011;9344;52.294;13.626;2022-12-07T09:29:59;8.43;;;2.40;;
18433;SDS011;9344;52.294;13.626;2022-12-07T09:32:25;8.03;;;3.00;;
18433;SDS011;9344;52.294;13.626;2022-12-07T09:34:52;5.33;;;2.23;;
18433;SDS011;9344;52.294;13.626;2022-12-07T09:37:18;5.97;;;2.47;;
18433;SDS011;9344;52.294;13.626;2022-12-07T09:39:45;6.13;;;2.63;;
18433;SDS011;9344;52.294;13.626;2022-12-07T09:42:15;3.90;;;1.77;;
18433;SDS011;9344;52.294;13.626;2022-12-07T09:44:53;3.17;;;1.73;;
18433;SDS011;9344;52.294;13.626;2022-12-07T09:47:19;4.57;;;1.40;;
18433;SDS011;9344;52.294;13.626;2022-12-07T09:49:46;2.60;;;1.40;;
18433;SDS011;9344;52.294;13.626;2022-12-07T09:52:17;3.13;;;2.00;;
18433;SDS011;9344;52.294;13.626;2022-12-07T09:54:47;3.27;;;1.77;;
18433;SDS011;9344;52.294;13.626;2022-12-07T09:57:15;2.10;;;1.13;;
18433;SDS011;9344;52.294;13.626;2022-12-07T09:59:42;2.57;;;1.40;;
18433;SDS011;9344;52.294;13.626;2022-12-07T10:05:00;2.00;;;1.37;;
18433;SDS011;9344;52.294;13.626;2022-12-07T10:07:27;2.90;;;1.50;;
18433;SDS011;9344;52.294;13.626;2022-12-07T10:09:53;2.08;;;1.13;;
18433;SDS011;9344;52.294;13.626;2022-12-07T10:12:20;1.87;;;1.30;;
18433;SDS011;9344;52.294;13.626;2022-12-07T10:14:53;3.63;;;1.60;;
18433;SDS011;9344;52.294;13.626;2022-12-07T10:17:38;2.67;;;1.30;;
18433;SDS011;9344;52.294;13.626;2022-12-07T10:20:13;4.30;;;1.23;;
18433;SDS011;9344;52.294;13.626;2022-12-07T10:22:53;2.60;;;1.33;;
18433;SDS011;9344;52.294;13.626;2022-12-07T10:25:26;1.50;;;0.93;;
18433;SDS011;9344;52.294;13.626;2022-12-07T10:27:59;1.50;;;1.00;;
18433;SDS011;9344;52.294;13.626;2022-12-07T10:30:45;2.17;;;1.00;;
18433;SDS011;9344;52.294;13.626;2022-12-07T10:33:34;1.20;;;0.93;;
18433;SDS011;9344;52.294;13.626;2022-12-07T10:36:15;3.50;;;1.00;;
18433;SDS011;9344;52.294;13.626;2022-12-07T10:38:46;1.13;;;0.80;;
18433;SDS011;9344;52.294;13.626;2022-12-07T10:41:14;2.27;;;1.10;;
18433;SDS011;9344;52.294;13.626;2022-12-07T10:43:46;1.50;;;0.80;;
18433;SDS011;9344;52.294;13.626;2022-12-07T10:46:21;1.43;;;1.00;;
18433;SDS011;9344;52.294;13.626;2022-12-07T10:49:15;1.33;;;0.87;;
18433;SDS011;9344;52.294;13.626;2022-12-07T10:51:59;2.00;;;1.10;;
18433;SDS011;9344;52.294;13.626;2022-12-07T10:54:32;2.13;;;1.23;;
18433;SDS011;9344;52.294;13.626;2022-12-07T10:57:10;2.40;;;1.70;;
18433;SDS011;9344;52.294;13.626;2022-12-07T11:00:07;6.13;;;2.00;;
18433;SDS011;9344;52.294;13.626;2022-12-07T11:02:48;7.70;;;2.77;;
18433;SDS011;9344;52.294;13.626;2022-12-07T11:05:32;1.80;;;1.20;;
18433;SDS011;9344;52.294;13.626;2022-12-07T11:08:09;2.10;;;1.13;;
18433;SDS011;9344;52.294;13.626;2022-12-07T11:10:44;2.40;;;1.33;;
18433;SDS011;9344;52.294;13.626;2022-12-07T11:13:22;2.30;;;1.20;;
18433;SDS011;9344;52.294;13.626;2022-12-07T11:15:56;2.97;;;1.40;;
18433;SDS011;9344;52.294;13.626;2022-12-07T11:18:32;1.67;;;1.10;;
18433;SDS011;9344;52.294;13.626;2022-12-07T11:21:07;8.07;;;1.63;;
18433;SDS011;9344;52.294;13.626;2022-12-07T11:23:45;3.37;;;1.30;;
18433;SDS011;9344;52.294;13.626;2022-12-07T11:26:18;2.90;;;1.30;;
18433;SDS011;9344;52.294;13.626;2022-12-07T11:29:00;3.07;;;1.63;;
18433;SDS011;9344;52.294;13.626;2022-12-07T11:31:38;4.63;;;1.97;;
18433;SDS011;9344;52.294;13.626;2022-12-07T11:34:19;2.03;;;1.00;;
18433;SDS011;9344;52.294;13.626;2022-12-07T11:36:54;2.83;;;1.47;;
18433;SDS011;9344;52.294;13.626;2022-12-07T11:39:25;3.57;;;1.50;;
18433;SDS011;9344;52.294;13.626;2022-12-07T11:41:54;2.60;;;1.33;;
18433;SDS011;9344;52.294;13.626;2022-12-07T11:44:27;4.53;;;1.70;;
18433;SDS011;9344;52.294;13.626;2022-12-07T11:47:00;2.27;;;1.40;;
18433;SDS011;9344;52.294;13.626;2022-12-07T11:49:37;5.20;;;1.60;;
18433;SDS011;9344;52.294;13.626;2022-12-07T11:52:12;2.03;;;1.33;;
18433;SDS011;9344;52.294;13.626;2022-12-07T11:54:44;5.03;;;1.70;;
18433;SDS011;9344;52.294;13.626;2022-12-07T11:57:12;2.50;;;1.43;;
18433;SDS011;9344;52.294;13.626;2022-12-07T11:59:45;4.97;;;1.93;;
18433;SDS011;9344;52.294;13.626;2022-12-07T12:02:16;2.97;;;1.70;;
18433;SDS011;9344;52.294;13.626;2022-12-07T12:04:50;4.93;;;1.83;;
18433;SDS011;9344;52.294;13.626;2022-12-07T12:07:22;2.50;;;1.50;;
18433;SDS011;9344;52.294;13.626;2022-12-07T12:09:51;2.83;;;1.40;;
18433;SDS011;9344;52.294;13.626;2022-12-07T12:12:23;6.50;;;2.03;;
18433;SDS011;9344;52.294;13.626;2022-12-07T12:15:04;2.87;;;1.83;;
18433;SDS011;9344;52.294;13.626;2022-12-07T12:17:46;1.77;;;1.23;;
18433;SDS011;9344;52.294;13.626;2022-12-07T12:20:23;2.87;;;1.50;;
18433;SDS011;9344;52.294;13.626;2022-12-07T12:22:56;5.60;;;1.67;;
18433;SDS011;9344;52.294;13.626;2022-12-07T12:25:27;2.17;;;1.33;;
18433;SDS011;9344;52.294;13.626;2022-12-07T12:27:56;8.33;;;1.70;;
18433;SDS011;9344;52.294;13.626;2022-12-07T12:30:27;3.60;;;1.67;;
18433;SDS011;9344;52.294;13.626;2022-12-07T12:33:05;4.43;;;1.63;;
18433;SDS011;9344;52.294;13.626;2022-12-07T12:35:40;2.80;;;1.37;;
18433;SDS011;9344;52.294;13.626;2022-12-07T12:38:29;3.37;;;1.47;;
18433;SDS011;9344;52.294;13.626;2022-12-07T12:40:58;4.93;;;1.27;;
18433;SDS011;9344;52.294;13.626;2022-12-07T12:43:42;5.67;;;1.93;;
18433;SDS011;9344;52.294;13.626;2022-12-07T12:49:14;1.70;;;1.20;;
18433;SDS011;9344;52.294;13.626;2022-12-07T12:51:59;3.73;;;1.53;;
18433;SDS011;9344;52.294;13.626;2022-12-07T12:54:29;2.47;;;1.30;;
18433;SDS011;9344;52.294;13.626;2022-12-07T12:56:58;4.77;;;1.30;;
18433;SDS011;9344;52.294;13.626;2022-12-07T12:59:30;5.30;;;1.43;;
18433;SDS011;9344;52.294;13.626;2022-12-07T13:02:09;3.03;;;1.50;;
18433;SDS011;9344;52.294;13.626;2022-12-07T13:10:38;4.03;;;1.40;;
18433;SDS011;9344;52.294;13.626;2022-12-07T13:13:29;2.60;;;1.08;;
18433;SDS011;9344;52.294;13.626;2022-12-07T13:22:34;5.73;;;1.40;;
18433;SDS011;9344;52.294;13.626;2022-12-07T13:25:07;5.18;;;1.20;;
18433;SDS011;9344;52.294;13.626;2022-12-07T13:27:39;5.17;;;1.37;;
18433;SDS011;9344;52.294;13.626;2022-12-07T13:30:12;1.87;;;1.17;;
18433;SDS011;9344;52.294;13.626;2022-12-07T13:32:40;2.93;;;1.27;;
18433;SDS011;9344;52.294;13.626;2022-12-07T13:37:58;9.60;;;1.67;;
18433;SDS011;9344;52.294;13.626;2022-12-07T13:40:27;1.88;;;1.00;;
18433;SDS011;9344;52.294;13.626;2022-12-07T13:42:58;1.67;;;1.00;;
18433;SDS011;9344;52.294;13.626;2022-12-07T13:45:27;6.00;;;1.60;;
18433;SDS011;9344;52.294;13.626;2022-12-07T13:48:08;4.37;;;1.10;;
18433;SDS011;9344;52.294;13.626;2022-12-07T13:50:40;4.53;;;1.13;;
18433;SDS011;9344;52.294;13.626;2022-12-07T13:53:07;3.27;;;1.10;;
18433;SDS011;9344;52.294;13.626;2022-12-07T13:55:44;2.80;;;1.20;;
18433;SDS011;9344;52.294;13.626;2022-12-07T13:58:13;8.07;;;1.52;;
18433;SDS011;9344;52.294;13.626;2022-12-07T14:00:39;3.45;;;1.30;;
18433;SDS011;9344;52.294;13.626;2022-12-07T14:03:20;9.87;;;2.33;;
18433;SDS011;9344;52.294;13.626;2022-12-07T14:06:03;1.70;;;1.20;;
18433;SDS011;9344;52.294;13.626;2022-12-07T14:08:50;4.70;;;1.33;;
18433;SDS011;9344;52.294;13.626;2022-12-07T14:11:17;3.87;;;1.77;;
18433;SDS011;9344;52.294;13.626;2022-12-07T14:13:58;2.42;;;1.15;;
18433;SDS011;9344;52.294;13.626;2022-12-07T14:16:27;3.10;;;1.20;;
18433;SDS011;9344;52.294;13.626;2022-12-07T14:18:55;1.33;;;0.90;;
18433;SDS011;9344;52.294;13.626;2022-12-07T14:21:24;6.77;;;1.60;;
18433;SDS011;9344;52.294;13.626;2022-12-07T14:24:12;1.33;;;0.90;;
18433;SDS011;9344;52.294;13.626;2022-12-07T14:26:43;3.27;;;1.40;;
18433;SDS011;9344;52.294;13.626;2022-12-07T14:29:22;5.47;;;1.33;;
18433;SDS011;9344;52.294;13.626;2022-12-07T14:31:56;8.67;;;1.67;;
18433;SDS011;9344;52.294;13.626;2022-12-07T14:34:24;3.00;;;1.30;;
18433;SDS011;9344;52.294;13.626;2022-12-07T14:36:51;2.37;;;1.20;;
18433;SDS011;9344;52.294;13.626;2022-12-07T14:39:18;1.40;;;1.00;;
18433;SDS011;9344;52.294;13.626;2022-12-07T14:41:44;2.80;;;1.10;;
18433;SDS011;9344;52.294;13.626;2022-12-07T14:44:17;2.97;;;1.40;;
18433;SDS011;9344;52.294;13.626;2022-12-07T14:46:46;2.10;;;1.50;;
18433;SDS011;9344;52.294;13.626;2022-12-07T14:49:14;5.30;;;1.30;;
18433;SDS011;9344;52.294;13.626;2022-12-07T14:51:41;6.77;;;1.60;;
18433;SDS011;9344;52.294;13.626;2022-12-07T14:54:12;5.93;;;1.10;;
18433;SDS011;9344;52.294;13.626;2022-12-07T14:56:42;3.97;;;1.67;;
18433;SDS011;9344;52.294;13.626;2022-12-07T14:59:10;5.57;;;1.80;;
18433;SDS011;9344;52.294;13.626;2022-12-07T15:01:37;2.43;;;1.37;;
18433;SDS011;9344;52.294;13.626;2022-12-07T15:04:05;9.43;;;1.67;;
18433;SDS011;9344;52.294;13.626;2022-12-07T15:06:32;4.87;;;1.57;;
18433;SDS011;9344;52.294;13.626;2022-12-07T15:08:59;3.50;;;1.63;;
18433;SDS011;9344;52.294;13.626;2022-12-07T15:11:25;4.30;;;1.77;;
18433;SDS011;9344;52.294;13.626;2022-12-07T15:13:52;5.03;;;1.90;;
18433;SDS011;9344;52.294;13.626;2022-12-07T15:16:32;1.50;;;1.10;;
18433;SDS011;9344;52.294;13.626;2022-12-07T15:19:00;2.37;;;1.33;;
18433;SDS011;9344;52.294;13.626;2022-12-07T15:21:27;4.63;;;1.90;;
18433;SDS011;9344;52.294;13.626;2022-12-07T15:23:54;8.80;;;1.83;;
18433;SDS011;9344;52.294;13.626;2022-12-07T15:26:21;4.27;;;1.53;;